Terminal Aerodrome Forecast
Issued by NWS North Platte, NE

Home | Current Version | Previous Version | Text Only | Print | Product List | Glossary Off
Versions: 1 2 3 4 5 6 7 8 9 10 11 12 13 14 15 16 17 18 19

000
FTUS43 KLBF 261732
TAFVTN
TAF
KVTN 261732Z 2618/2718 13008KT P6SM SKC
     FM270000 16013KT P6SM BKN070 OVC120 PROB30 2703/2707 P6SM -TSRA
      BKN050CB
     FM270700 18011KT P6SM SCT120 BKN200=

USA.gov is the U.S. government's official web portal to all federal, state and local government web resources and services.